Stations météo

réclame
Mon MeteoGroup
Kinbrace, Grande-Bretagne (99016): Température de l'air & dewpoint: 10.07.2019 13:00:00 - 16.07.2019 13:00:00 (BST)Kinbrace, Grande-Bretagne (99016): Vitesse du vent: 10.07.2019 13:00:00 - 16.07.2019 13:00:00 (BST)Kinbrace, Grande-Bretagne (99016): Direction du vent: 10.07.2019 13:00:00 - 16.07.2019 13:00:00 (BST)Kinbrace, Grande-Bretagne (99016): Quantités de précipitations: 10.07.2019 13:00:00 - 16.07.2019 13:00:00 (BST)
Date & Time tt [°C] td [°C] ff [km/h] ff [knt] dd rr [mm]
16.07.2019 13:00:00 - - - - - -
16.07.2019 12:00:00 - - - - - -
16.07.2019 11:00:00 - - - - - -
16.07.2019 10:00:00 - - - - - -
16.07.2019 09:00:00 16,9 12,4 9 5 ESE 0,0
16.07.2019 08:00:00 14,5 12,1 4 2 ESE 0,0
16.07.2019 07:00:00 12,6 11,7 5 3 SSW 0,0
16.07.2019 06:00:00 11,6 10,8 4 2 S 0,0
16.07.2019 05:00:00 11,8 10,8 2 1 SE 0,0
16.07.2019 04:00:00 12,3 10,8 4 2 SE 0,0
16.07.2019 03:00:00 12,7 11,4 4 2 SSE 0,0
16.07.2019 02:00:00 12,9 11,6 4 2 S 0,0
16.07.2019 01:00:00 13,2 11,5 2 1 NNE 0,0
16.07.2019 00:00:00 13,5 11,6 4 2 S 0,0
15.07.2019 23:00:00 13,8 11,2 2 1 S 0,0
15.07.2019 22:00:00 14,5 11,2 4 2 S 0,0
15.07.2019 21:00:00 15,0 11,5 9 5 S 0,0
15.07.2019 20:00:00 17,1 11,2 11 6 SE 0,0
15.07.2019 19:00:00 19,2 13,4 21 11 SSE 0,0
15.07.2019 18:00:00 20,5 13,2 15 8 ESE 0,0
15.07.2019 17:00:00 20,4 13,1 18 10 SE 0,0
15.07.2019 16:00:00 21,9 15,1 13 7 S 0,0
15.07.2019 15:00:00 22,2 13,1 8 4 S 0,0
15.07.2019 14:00:00 21,4 12,4 9 5 NNW 0,0
15.07.2019 13:00:00 21,2 11,8 4 2 ESE 0,0
15.07.2019 12:00:00 20,0 11,6 2 1 S 0,0
15.07.2019 11:00:00 18,3 12,2 4 2 SW 0,0
15.07.2019 10:00:00 15,5 12,0 4 2 SW 0,0
15.07.2019 09:00:00 13,0 11,4 2 1 SSE 0,0
15.07.2019 08:00:00 11,6 11,1 4 2 S 0,0
15.07.2019 07:00:00 10,7 10,4 8 4 ESE 0,0
15.07.2019 06:00:00 9,2 9,1 4 2 S 0,0
15.07.2019 05:00:00 7,8 7,6 2 1 SSE 0,0
15.07.2019 04:00:00 5,9 5,7 2 1 S 0,0
15.07.2019 03:00:00 5,5 5,2 2 1 SE 0,0
15.07.2019 02:00:00 4,3 3,7 2 1 ESE 0,0
15.07.2019 01:00:00 5,8 5,0 2 1 SSE 0,0
15.07.2019 00:00:00 7,1 5,9 2 1 NW 0,0
14.07.2019 23:00:00 9,4 7,8 2 1 N 0,0
14.07.2019 22:00:00 12,5 8,6 8 4 N 0,0
14.07.2019 21:00:00 13,8 9,6 15 8 N 0,0
14.07.2019 20:00:00 15,5 10,2 18 10 N 0,0
14.07.2019 19:00:00 17,1 10,8 16 9 N 0,0
14.07.2019 18:00:00 18,1 11,2 15 8 N 0,0
14.07.2019 17:00:00 17,3 10,5 13 7 N 0,0
14.07.2019 16:00:00 18,2 11,1 8 4 NNE 0,0
14.07.2019 15:00:00 16,2 10,6 8 4 N 0,0
14.07.2019 14:00:00 14,8 10,2 9 5 NW 0,0
14.07.2019 13:00:00 14,6 9,6 9 5 NW 0,0
14.07.2019 12:00:00 14,3 9,3 11 6 NW 0,0
14.07.2019 11:00:00 13,9 9,3 9 5 NW 0,0
14.07.2019 10:00:00 13,4 9,7 15 8 NW 0,0
14.07.2019 09:00:00 12,9 10,4 13 7 WNW 0,0
14.07.2019 08:00:00 12,1 10,3 13 7 NW 0,0
14.07.2019 07:00:00 12,0 10,1 5 3 NNW 0,0
14.07.2019 06:00:00 11,7 10,1 9 5 NNW 0,0
14.07.2019 05:00:00 11,2 10,6 11 6 N 0,0
14.07.2019 04:00:00 10,0 9,6 2 1 SSE 0,0
14.07.2019 03:00:00 10,0 9,6 8 4 NNE 0,0
14.07.2019 02:00:00 9,8 8,9 4 2 NNW 0,0
14.07.2019 01:00:00 11,7 10,1 15 8 NNW 0,0
14.07.2019 00:00:00 12,0 10,5 2 1 WNW 0,0
13.07.2019 23:00:00 12,4 10,2 9 5 NNW 0,0
13.07.2019 22:00:00 12,8 10,0 11 6 NNE 0,0
13.07.2019 21:00:00 13,6 10,6 13 7 N 0,0
13.07.2019 20:00:00 14,7 11,0 24 13 NW 0,0
13.07.2019 19:00:00 14,2 11,2 28 15 NW 0,0
13.07.2019 18:00:00 14,9 11,6 28 15 NNW 0,0
13.07.2019 17:00:00 15,2 11,4 26 14 NW 0,0
13.07.2019 16:00:00 15,7 12,2 26 14 NW 0,0
13.07.2019 15:00:00 16,1 11,5 22 12 NW 0,0
13.07.2019 14:00:00 14,7 10,9 18 10 NW 0,0
13.07.2019 13:00:00 14,9 10,8 18 10 NW 0,0
13.07.2019 12:00:00 15,3 10,7 21 11 NW 0,0
13.07.2019 11:00:00 15,3 11,6 22 12 NNW 0,0
13.07.2019 10:00:00 14,9 11,7 26 14 NW 0,2
13.07.2019 09:00:00 13,0 12,1 16 9 NNW 1,0
13.07.2019 08:00:00 14,2 13,0 13 7 NW 0,2
13.07.2019 07:00:00 13,2 12,7 15 8 NW 0,0
13.07.2019 06:00:00 13,3 12,3 18 10 NW 0,0
13.07.2019 05:00:00 13,2 12,1 4 2 N 0,0
13.07.2019 04:00:00 12,4 11,5 2 1 SSW 0,0
13.07.2019 03:00:00 12,4 11,4 0 0 N 0,0
13.07.2019 02:00:00 12,3 11,2 2 1 NNW 0,0
13.07.2019 01:00:00 12,2 11,0 5 3 NNW 0,0
13.07.2019 00:00:00 12,6 10,8 8 4 N 0,0
12.07.2019 23:00:00 13,3 10,8 13 7 N 0,0
12.07.2019 22:00:00 14,3 11,9 9 5 N 0,0
12.07.2019 21:00:00 15,1 12,0 9 5 NNE 0,0
12.07.2019 20:00:00 15,7 12,1 11 6 NNE 0,0
12.07.2019 19:00:00 16,2 12,3 13 7 N 0,0
12.07.2019 18:00:00 17,7 12,4 11 6 N 0,0
12.07.2019 17:00:00 19,1 13,8 11 6 N 0,0
12.07.2019 16:00:00 18,9 13,3 9 5 N 0,0
12.07.2019 15:00:00 18,5 13,7 9 5 N 0,0
12.07.2019 14:00:00 18,0 13,7 11 6 WNW 0,0
12.07.2019 13:00:00 16,2 13,3 8 4 NNE 0,0
12.07.2019 12:00:00 14,9 13,0 9 5 NNE 0,0
12.07.2019 11:00:00 14,0 12,4 9 5 N 0,0
12.07.2019 10:00:00 13,7 12,6 13 7 NNW 0,0
12.07.2019 09:00:00 13,4 12,3 8 4 E 0,0
12.07.2019 08:00:00 13,1 12,3 4 2 NNW 0,0
12.07.2019 07:00:00 12,5 11,8 4 2 E 0,2
12.07.2019 06:00:00 12,6 12,2 2 1 SSW 0,4
12.07.2019 05:00:00 12,8 12,3 8 4 WNW 0,2
12.07.2019 04:00:00 13,0 12,5 15 8 N 0,0
12.07.2019 03:00:00 13,0 12,5 18 10 N 0,4
12.07.2019 02:00:00 13,2 12,6 18 10 N 4,8
12.07.2019 01:00:00 13,8 13,1 11 6 N 0,0
12.07.2019 00:00:00 14,2 13,4 8 4 N 0,2
11.07.2019 23:00:00 14,7 13,8 9 5 N 0,0
11.07.2019 22:00:00 15,3 14,2 9 5 N 0,0
11.07.2019 21:00:00 16,1 14,8 15 8 NNW 0,0
11.07.2019 20:00:00 16,5 15,5 13 7 NW 0,0
11.07.2019 19:00:00 16,6 15,8 5 3 NNW 0,8
11.07.2019 18:00:00 16,2 15,1 9 5 WNW 0,2
11.07.2019 17:00:00 17,3 14,0 8 4 NNW 0,0
11.07.2019 16:00:00 18,1 15,9 11 6 NNE 0,2
11.07.2019 15:00:00 15,0 13,0 15 8 WNW 1,2
11.07.2019 14:00:00 20,7 15,4 11 6 SE 0,0
11.07.2019 13:00:00 20,6 14,9 2 1 S 0,0
11.07.2019 12:00:00 18,8 15,5 4 2 SSW 0,0
11.07.2019 11:00:00 17,2 15,9 5 3 N 0,2
11.07.2019 10:00:00 16,7 15,3 8 4 WNW 0,0
11.07.2019 09:00:00 16,4 15,1 8 4 ESE 0,0
11.07.2019 08:00:00 15,5 15,3 4 2 NW 0,0
11.07.2019 07:00:00 14,9 14,7 2 1 W 0,0
11.07.2019 06:00:00 14,5 14,3 2 1 WNW 0,0
11.07.2019 05:00:00 14,4 14,2 5 3 S 0,0
11.07.2019 04:00:00 14,4 14,0 4 2 S 0,0
11.07.2019 03:00:00 14,9 14,5 2 1 S 0,4
11.07.2019 02:00:00 15,2 14,7 2 1 SSW 2,2
11.07.2019 01:00:00 15,4 14,8 4 2 SE 0,0
11.07.2019 00:00:00 15,8 15,2 11 6 SE 0,0
10.07.2019 23:00:00 15,2 14,6 8 4 S 0,0
10.07.2019 22:00:00 15,9 15,3 9 5 SE 0,2
10.07.2019 21:00:00 16,1 15,5 15 8 SE 1,6
10.07.2019 20:00:00 16,0 15,1 16 9 SSE 0,4
10.07.2019 19:00:00 16,5 15,4 16 9 SE 0,2
10.07.2019 18:00:00 17,1 15,7 13 7 SE 2,2
10.07.2019 17:00:00 16,5 14,8 16 9 SE 0,0
10.07.2019 16:00:00 18,6 15,7 16 9 SE 1,0
10.07.2019 15:00:00 18,1 15,7 21 11 SSE 0,2
10.07.2019 14:00:00 20,9 15,2 8 4 S 0,0
10.07.2019 13:00:00 19,6 15,5 13 7 SSE 0,0

tt = Température de l'air
td = dewpoint
ff = Vitesse du vent
dd = Direction du vent
rr = Quantités de précipitations

stations d'obs. à proximité